sensor_id;sensor_type;location;lat;lon;timestamp;pressure;altitude;pressure_sealevel;temperature;humidity
10712;BME280;5407;51.234;6.804;2023-03-19T00:01:47;100666.78;;;24.68;39.38
10712;BME280;5407;51.234;6.804;2023-03-19T00:04:14;100675.06;;;24.68;39.42
10712;BME280;5407;51.234;6.804;2023-03-19T00:06:41;100673.50;;;24.67;39.39
10712;BME280;5407;51.234;6.804;2023-03-19T00:09:08;100674.31;;;24.68;39.36
10712;BME280;5407;51.234;6.804;2023-03-19T00:11:38;100674.31;;;24.68;39.35
10712;BME280;5407;51.234;6.804;2023-03-19T00:14:05;100668.78;;;24.68;39.44
10712;BME280;5407;51.234;6.804;2023-03-19T00:16:33;100684.53;;;24.67;39.37
10712;BME280;5407;51.234;6.804;2023-03-19T00:19:01;100673.50;;;24.67;39.44
10712;BME280;5407;51.234;6.804;2023-03-19T00:21:28;100677.47;;;24.66;39.26
10712;BME280;5407;51.234;6.804;2023-03-19T00:23:55;100666.44;;;24.66;39.58
10712;BME280;5407;51.234;6.804;2023-03-19T00:26:25;100670.75;;;24.67;39.30
10712;BME280;5407;51.234;6.804;2023-03-19T00:28:52;100670.75;;;24.67;39.65
10712;BME280;5407;51.234;6.804;2023-03-19T00:31:19;100672.75;;;24.67;39.65
10712;BME280;5407;51.234;6.804;2023-03-19T00:33:48;100671.97;;;24.66;39.73
10712;BME280;5407;51.234;6.804;2023-03-19T00:36:15;100673.19;;;24.65;39.37
10712;BME280;5407;51.234;6.804;2023-03-19T00:38:42;100666.44;;;24.66;39.37
10712;BME280;5407;51.234;6.804;2023-03-19T00:41:10;100664.91;;;24.65;39.43
10712;BME280;5407;51.234;6.804;2023-03-19T00:43:37;100659.38;;;24.65;39.78
10712;BME280;5407;51.234;6.804;2023-03-19T00:46:05;100660.94;;;24.66;39.41
10712;BME280;5407;51.234;6.804;2023-03-19T00:48:32;100664.13;;;24.65;39.62
10712;BME280;5407;51.234;6.804;2023-03-19T00:51:03;100671.19;;;24.66;39.68
10712;BME280;5407;51.234;6.804;2023-03-19T00:53:30;100670.41;;;24.65;39.61
10712;BME280;5407;51.234;6.804;2023-03-19T00:55:57;100670.75;;;24.67;39.94
10712;BME280;5407;51.234;6.804;2023-03-19T00:58:24;100664.56;;;24.63;39.66
10712;BME280;5407;51.234;6.804;2023-03-19T01:00:51;100670.41;;;24.65;39.80
10712;BME280;5407;51.234;6.804;2023-03-19T01:03:19;100663.34;;;24.64;39.87
10712;BME280;5407;51.234;6.804;2023-03-19T01:05:46;100670.41;;;24.65;40.00
10712;BME280;5407;51.234;6.804;2023-03-19T01:08:15;100667.22;;;24.67;39.75
10712;BME280;5407;51.234;6.804;2023-03-19T01:10:42;100666.44;;;24.66;39.75
10712;BME280;5407;51.234;6.804;2023-03-19T01:13:10;100673.50;;;24.67;39.86
10712;BME280;5407;51.234;6.804;2023-03-19T01:15:42;100672.31;;;24.68;39.79
10712;BME280;5407;51.234;6.804;2023-03-19T01:18:10;100665.69;;;24.66;40.18
10712;BME280;5407;51.234;6.804;2023-03-19T01:20:39;100673.19;;;24.65;39.84
10712;BME280;5407;51.234;6.804;2023-03-19T01:23:07;100670.41;;;24.65;40.04
10712;BME280;5407;51.234;6.804;2023-03-19T01:25:37;100663.34;;;24.64;39.91
10712;BME280;5407;51.234;6.804;2023-03-19T01:28:05;100661.38;;;24.65;40.07
10712;BME280;5407;51.234;6.804;2023-03-19T01:30:33;100659.38;;;24.65;40.12
10712;BME280;5407;51.234;6.804;2023-03-19T01:33:00;100651.56;;;24.64;39.90
10712;BME280;5407;51.234;6.804;2023-03-19T01:35:46;100646.78;;;24.64;40.04
10712;BME280;5407;51.234;6.804;2023-03-19T01:38:14;100646.78;;;24.64;40.06
10712;BME280;5407;51.234;6.804;2023-03-19T01:40:45;100648.00;;;24.63;40.09
10712;BME280;5407;51.234;6.804;2023-03-19T01:43:15;100641.72;;;24.63;39.87
10712;BME280;5407;51.234;6.804;2023-03-19T01:46:00;100646.47;;;24.62;39.91
10712;BME280;5407;51.234;6.804;2023-03-19T01:48:37;100642.50;;;24.63;39.90
10712;BME280;5407;51.234;6.804;2023-03-19T01:51:11;100638.19;;;24.62;39.95
10712;BME280;5407;51.234;6.804;2023-03-19T01:53:56;100643.69;;;24.62;39.63
10712;BME280;5407;51.234;6.804;2023-03-19T01:56:42;100648.00;;;24.63;39.69
10712;BME280;5407;51.234;6.804;2023-03-19T01:59:26;100650.78;;;24.63;39.71
10712;BME280;5407;51.234;6.804;2023-03-19T02:02:15;100648.47;;;24.62;39.82
10712;BME280;5407;51.234;6.804;2023-03-19T02:04:46;100642.16;;;24.61;39.83
10712;BME280;5407;51.234;6.804;2023-03-19T02:07:15;100644.50;;;24.63;39.67
10712;BME280;5407;51.234;6.804;2023-03-19T02:09:42;100644.91;;;24.61;39.70
10712;BME280;5407;51.234;6.804;2023-03-19T02:12:11;100661.03;;;24.63;39.68
10712;BME280;5407;51.234;6.804;2023-03-19T02:14:38;100646.91;;;24.61;39.74
10712;BME280;5407;51.234;6.804;2023-03-19T02:17:06;100649.22;;;24.62;39.60
10712;BME280;5407;51.234;6.804;2023-03-19T02:19:39;100647.66;;;24.61;39.85
10712;BME280;5407;51.234;6.804;2023-03-19T02:22:12;100653.19;;;24.61;39.89
10712;BME280;5407;51.234;6.804;2023-03-19T02:24:44;100645.38;;;24.60;39.70
10712;BME280;5407;51.234;6.804;2023-03-19T02:27:19;100650.88;;;24.60;39.84
10712;BME280;5407;51.234;6.804;2023-03-19T02:29:48;100648.88;;;24.60;39.82
10712;BME280;5407;51.234;6.804;2023-03-19T02:32:16;100644.56;;;24.59;39.77
10712;BME280;5407;51.234;6.804;2023-03-19T02:34:43;100647.34;;;24.59;39.88
10712;BME280;5407;51.234;6.804;2023-03-19T02:37:14;100643.03;;;24.58;39.63
10712;BME280;5407;51.234;6.804;2023-03-19T02:39:49;100637.50;;;24.58;39.95
10712;BME280;5407;51.234;6.804;2023-03-19T02:42:20;100647.00;;;24.57;39.84
10712;BME280;5407;51.234;6.804;2023-03-19T02:44:48;100633.22;;;24.57;39.77
10712;BME280;5407;51.234;6.804;2023-03-19T02:47:15;100639.06;;;24.59;39.90
10712;BME280;5407;51.234;6.804;2023-03-19T02:49:43;100640.69;;;24.57;39.83
10712;BME280;5407;51.234;6.804;2023-03-19T02:52:10;100637.50;;;24.58;39.64
10712;BME280;5407;51.234;6.804;2023-03-19T02:54:38;100641.47;;;24.57;39.80
10712;BME280;5407;51.234;6.804;2023-03-19T02:57:06;100648.53;;;24.58;39.78
10712;BME280;5407;51.234;6.804;2023-03-19T02:59:35;100643.03;;;24.58;39.89
10712;BME280;5407;51.234;6.804;2023-03-19T03:02:03;100644.56;;;24.59;39.82
10712;BME280;5407;51.234;6.804;2023-03-19T03:04:32;100643.03;;;24.58;39.87
10712;BME280;5407;51.234;6.804;2023-03-19T03:07:01;100643.03;;;24.58;39.84
10712;BME280;5407;51.234;6.804;2023-03-19T03:09:29;100644.56;;;24.59;39.73
10712;BME280;5407;51.234;6.804;2023-03-19T03:11:57;100645.44;;;24.56;39.73
10712;BME280;5407;51.234;6.804;2023-03-19T03:14:24;100643.91;;;24.55;39.70
10712;BME280;5407;51.234;6.804;2023-03-19T03:16:52;100646.22;;;24.57;39.80
10712;BME280;5407;51.234;6.804;2023-03-19T03:19:19;100638.38;;;24.55;39.62
10712;BME280;5407;51.234;6.804;2023-03-19T03:21:48;100650.97;;;24.56;39.85
10712;BME280;5407;51.234;6.804;2023-03-19T03:24:15;100648.22;;;24.56;39.64
10712;BME280;5407;51.234;6.804;2023-03-19T03:26:43;100648.22;;;24.56;39.66
10712;BME280;5407;51.234;6.804;2023-03-19T03:29:10;100653.38;;;24.54;39.73
10712;BME280;5407;51.234;6.804;2023-03-19T03:31:37;100654.94;;;24.55;39.90
10712;BME280;5407;51.234;6.804;2023-03-19T03:34:06;100658.13;;;24.54;39.59
10712;BME280;5407;51.234;6.804;2023-03-19T03:36:33;100655.34;;;24.54;39.68
10712;BME280;5407;51.234;6.804;2023-03-19T03:39:00;100659.31;;;24.53;39.78
10712;BME280;5407;51.234;6.804;2023-03-19T03:41:28;100665.63;;;24.53;39.76
10712;BME280;5407;51.234;6.804;2023-03-19T03:43:55;100664.84;;;24.53;39.63
10712;BME280;5407;51.234;6.804;2023-03-19T03:46:22;100668.41;;;24.53;39.50
10712;BME280;5407;51.234;6.804;2023-03-19T03:48:50;100666.06;;;24.52;39.92
10712;BME280;5407;51.234;6.804;2023-03-19T03:51:19;100677.88;;;24.52;39.87
10712;BME280;5407;51.234;6.804;2023-03-19T03:53:46;100673.13;;;24.53;39.83
10712;BME280;5407;51.234;6.804;2023-03-19T03:56:14;100681.84;;;24.51;39.67
10712;BME280;5407;51.234;6.804;2023-03-19T03:58:41;100677.88;;;24.52;39.88
10712;BME280;5407;51.234;6.804;2023-03-19T04:01:11;100680.97;;;24.54;40.00
10712;BME280;5407;51.234;6.804;2023-03-19T04:03:39;100686.50;;;24.54;40.04
10712;BME280;5407;51.234;6.804;2023-03-19T04:06:08;100678.63;;;24.53;40.04
10712;BME280;5407;51.234;6.804;2023-03-19T04:08:36;100679.44;;;24.53;39.68
10712;BME280;5407;51.234;6.804;2023-03-19T04:11:05;100690.47;;;24.53;39.90
10712;BME280;5407;51.234;6.804;2023-03-19T04:13:33;100683.41;;;24.52;39.93
10712;BME280;5407;51.234;6.804;2023-03-19T04:16:02;100690.47;;;24.53;39.86
10712;BME280;5407;51.234;6.804;2023-03-19T04:18:29;100685.69;;;24.54;39.85
10712;BME280;5407;51.234;6.804;2023-03-19T04:20:56;100683.41;;;24.52;39.88
10712;BME280;5407;51.234;6.804;2023-03-19T04:23:23;100689.66;;;24.53;39.73
10712;BME280;5407;51.234;6.804;2023-03-19T04:25:51;100687.38;;;24.51;39.75
10712;BME280;5407;51.234;6.804;2023-03-19T04:28:18;100688.13;;;24.52;40.02
10712;BME280;5407;51.234;6.804;2023-03-19T04:30:45;100691.31;;;24.50;39.68
10712;BME280;5407;51.234;6.804;2023-03-19T04:33:12;100696.84;;;24.50;39.88
10712;BME280;5407;51.234;6.804;2023-03-19T04:35:39;100691.31;;;24.50;39.82
10712;BME280;5407;51.234;6.804;2023-03-19T04:38:06;100696.06;;;24.50;39.78
10712;BME280;5407;51.234;6.804;2023-03-19T04:40:33;100694.47;;;24.49;39.89
10712;BME280;5407;51.234;6.804;2023-03-19T04:43:01;100693.72;;;24.48;39.61
10712;BME280;5407;51.234;6.804;2023-03-19T04:45:32;100693.72;;;24.48;39.75
10712;BME280;5407;51.234;6.804;2023-03-19T04:48:00;100697.69;;;24.47;39.88
10712;BME280;5407;51.234;6.804;2023-03-19T04:50:29;100696.47;;;24.48;39.98
10712;BME280;5407;51.234;6.804;2023-03-19T04:52:57;100705.97;;;24.47;39.72
10712;BME280;5407;51.234;6.804;2023-03-19T04:55:24;100705.50;;;24.49;39.95
10712;BME280;5407;51.234;6.804;2023-03-19T04:58:04;100707.50;;;24.48;39.83
10712;BME280;5407;51.234;6.804;2023-03-19T05:00:34;100711.47;;;24.47;39.91
10712;BME280;5407;51.234;6.804;2023-03-19T05:03:01;100703.97;;;24.48;39.88
10712;BME280;5407;51.234;6.804;2023-03-19T05:05:30;100707.16;;;24.46;40.02
10712;BME280;5407;51.234;6.804;2023-03-19T05:07:57;100707.16;;;24.46;39.85
10712;BME280;5407;51.234;6.804;2023-03-19T05:10:25;100705.16;;;24.47;39.86
10712;BME280;5407;51.234;6.804;2023-03-19T05:12:52;100715.44;;;24.46;39.95
10712;BME280;5407;51.234;6.804;2023-03-19T05:15:20;100710.69;;;24.47;39.79
10712;BME280;5407;51.234;6.804;2023-03-19T05:17:57;100718.19;;;24.46;39.84
10712;BME280;5407;51.234;6.804;2023-03-19T05:20:44;100718.97;;;24.47;39.93
10712;BME280;5407;51.234;6.804;2023-03-19T05:23:21;100724.47;;;24.47;39.89
10712;BME280;5407;51.234;6.804;2023-03-19T05:25:59;100717.00;;;24.47;39.91
10712;BME280;5407;51.234;6.804;2023-03-19T05:28:44;100723.72;;;24.46;39.90
10712;BME280;5407;51.234;6.804;2023-03-19T05:31:15;100730.78;;;24.47;39.83
10712;BME280;5407;51.234;6.804;2023-03-19T05:33:46;100725.25;;;24.47;40.04
10712;BME280;5407;51.234;6.804;2023-03-19T05:36:13;100726.03;;;24.48;39.84
10712;BME280;5407;51.234;6.804;2023-03-19T05:39:03;100724.06;;;24.48;40.07
10712;BME280;5407;51.234;6.804;2023-03-19T05:41:34;100733.09;;;24.49;39.97
10712;BME280;5407;51.234;6.804;2023-03-19T05:44:04;100724.06;;;24.48;39.93
10712;BME280;5407;51.234;6.804;2023-03-19T05:46:47;100726.81;;;24.48;40.04
10712;BME280;5407;51.234;6.804;2023-03-19T05:49:15;100728.38;;;24.49;39.91
10712;BME280;5407;51.234;6.804;2023-03-19T05:51:42;100729.56;;;24.48;40.02
10712;BME280;5407;51.234;6.804;2023-03-19T05:54:10;100734.66;;;24.50;39.81
10712;BME280;5407;51.234;6.804;2023-03-19T05:56:53;100733.09;;;24.49;39.83
10712;BME280;5407;51.234;6.804;2023-03-19T05:59:33;100747.66;;;24.49;40.09
10712;BME280;5407;51.234;6.804;2023-03-19T06:02:20;100749.63;;;24.49;39.80
10712;BME280;5407;51.234;6.804;2023-03-19T06:04:48;100745.69;;;24.50;39.85
10712;BME280;5407;51.234;6.804;2023-03-19T06:07:18;100751.22;;;24.50;40.05
10712;BME280;5407;51.234;6.804;2023-03-19T06:09:45;100753.19;;;24.49;40.00
10712;BME280;5407;51.234;6.804;2023-03-19T06:12:11;100750.44;;;24.49;39.81
10712;BME280;5407;51.234;6.804;2023-03-19T06:14:57;100761.47;;;24.49;39.96
10712;BME280;5407;51.234;6.804;2023-03-19T06:17:54;100760.66;;;24.49;39.84
10712;BME280;5407;51.234;6.804;2023-03-19T06:20:22;100761.13;;;24.47;39.74
10712;BME280;5407;51.234;6.804;2023-03-19T06:22:49;100758.38;;;24.47;39.81
10712;BME280;5407;51.234;6.804;2023-03-19T06:25:17;100763.13;;;24.31;36.83
10712;BME280;5407;51.234;6.804;2023-03-19T06:27:44;100762.59;;;24.04;36.08
10712;BME280;5407;51.234;6.804;2023-03-19T06:30:23;100761.44;;;23.85;36.09
10712;BME280;5407;51.234;6.804;2023-03-19T06:32:50;100765.00;;;23.67;36.26
10712;BME280;5407;51.234;6.804;2023-03-19T06:35:19;100771.34;;;23.48;36.22
10712;BME280;5407;51.234;6.804;2023-03-19T06:37:48;100769.28;;;23.32;36.30
10712;BME280;5407;51.234;6.804;2023-03-19T06:40:15;100778.59;;;23.19;36.39
10712;BME280;5407;51.234;6.804;2023-03-19T06:42:43;100772.91;;;23.10;36.84
10712;BME280;5407;51.234;6.804;2023-03-19T06:45:11;100771.88;;;23.00;36.73
10712;BME280;5407;51.234;6.804;2023-03-19T06:47:40;100772.19;;;22.83;37.01
10712;BME280;5407;51.234;6.804;2023-03-19T06:50:08;100777.13;;;22.72;37.17
10712;BME280;5407;51.234;6.804;2023-03-19T06:52:36;100776.19;;;22.59;37.38
10712;BME280;5407;51.234;6.804;2023-03-19T06:55:04;100776.66;;;22.54;37.44
10712;BME280;5407;51.234;6.804;2023-03-19T06:57:31;100773.66;;;22.45;37.69
10712;BME280;5407;51.234;6.804;2023-03-19T06:59:58;100775.28;;;22.42;37.82
10712;BME280;5407;51.234;6.804;2023-03-19T07:02:25;100773.41;;;22.36;37.88
10712;BME280;5407;51.234;6.804;2023-03-19T07:04:52;100778.53;;;22.34;38.06
10712;BME280;5407;51.234;6.804;2023-03-19T07:07:19;100776.53;;;22.38;37.97
10712;BME280;5407;51.234;6.804;2023-03-19T07:09:47;100780.00;;;22.42;38.02
10712;BME280;5407;51.234;6.804;2023-03-19T07:12:14;100785.84;;;22.44;37.91
10712;BME280;5407;51.234;6.804;2023-03-19T07:14:41;100783.47;;;22.46;38.01
10712;BME280;5407;51.234;6.804;2023-03-19T07:17:07;100783.09;;;22.44;37.92
10712;BME280;5407;51.234;6.804;2023-03-19T07:19:34;100787.00;;;22.46;37.93
10712;BME280;5407;51.234;6.804;2023-03-19T07:22:01;100792.50;;;22.46;38.02
10712;BME280;5407;51.234;6.804;2023-03-19T07:24:28;100790.16;;;22.45;37.91
10712;BME280;5407;51.234;6.804;2023-03-19T07:26:56;100790.94;;;22.45;38.11
10712;BME280;5407;51.234;6.804;2023-03-19T07:29:23;100791.72;;;22.46;37.96
10712;BME280;5407;51.234;6.804;2023-03-19T07:31:50;100801.50;;;22.47;38.25
10712;BME280;5407;51.234;6.804;2023-03-19T07:34:17;100810.94;;;22.46;38.12
10712;BME280;5407;51.234;6.804;2023-03-19T07:36:43;100815.25;;;22.47;37.99
10712;BME280;5407;51.234;6.804;2023-03-19T07:39:11;100814.81;;;22.52;38.88
10712;BME280;5407;51.234;6.804;2023-03-19T07:41:38;100815.88;;;22.58;39.45
10712;BME280;5407;51.234;6.804;2023-03-19T07:44:14;100821.19;;;22.68;39.47
10712;BME280;5407;51.234;6.804;2023-03-19T07:46:41;100814.75;;;22.78;39.44
10712;BME280;5407;51.234;6.804;2023-03-19T07:49:08;100823.63;;;22.86;39.54
10712;BME280;5407;51.234;6.804;2023-03-19T07:51:35;100825.03;;;22.94;39.64
10712;BME280;5407;51.234;6.804;2023-03-19T07:54:02;100820.63;;;23.00;39.64
10712;BME280;5407;51.234;6.804;2023-03-19T07:56:29;100825.66;;;23.05;39.58
10712;BME280;5407;51.234;6.804;2023-03-19T07:58:56;100832.25;;;23.11;39.56
10712;BME280;5407;51.234;6.804;2023-03-19T08:01:25;100824.69;;;23.15;39.67
10712;BME280;5407;51.234;6.804;2023-03-19T08:03:52;100832.47;;;23.20;39.70
10712;BME280;5407;51.234;6.804;2023-03-19T08:06:19;100836.72;;;23.24;39.74
10712;BME280;5407;51.234;6.804;2023-03-19T08:08:46;100839.72;;;23.30;39.66
10712;BME280;5407;51.234;6.804;2023-03-19T08:11:13;100834.94;;;23.34;39.70
10712;BME280;5407;51.234;6.804;2023-03-19T08:13:40;100830.13;;;23.38;39.64
10712;BME280;5407;51.234;6.804;2023-03-19T08:16:08;100830.81;;;23.42;39.75
10712;BME280;5407;51.234;6.804;2023-03-19T08:18:36;100838.63;;;23.47;39.65
10712;BME280;5407;51.234;6.804;2023-03-19T08:21:03;100843.28;;;23.50;39.71
10712;BME280;5407;51.234;6.804;2023-03-19T08:23:31;100843.97;;;23.54;39.66
10712;BME280;5407;51.234;6.804;2023-03-19T08:25:58;100841.59;;;23.56;39.64
10712;BME280;5407;51.234;6.804;2023-03-19T08:28:25;100843.47;;;23.59;39.63
10712;BME280;5407;51.234;6.804;2023-03-19T08:30:51;100838.31;;;23.61;39.55
10712;BME280;5407;51.234;6.804;2023-03-19T08:33:20;100841.78;;;23.65;39.63
10712;BME280;5407;51.234;6.804;2023-03-19T08:35:48;100842.91;;;23.67;39.64
10712;BME280;5407;51.234;6.804;2023-03-19T08:38:16;100846.78;;;23.70;39.57
10712;BME280;5407;51.234;6.804;2023-03-19T08:40:44;100849.88;;;23.72;39.54
10712;BME280;5407;51.234;6.804;2023-03-19T08:43:11;100843.53;;;23.74;39.56
10712;BME280;5407;51.234;6.804;2023-03-19T08:45:38;100842.31;;;23.75;39.52
10712;BME280;5407;51.234;6.804;2023-03-19T08:48:04;100850.94;;;23.77;39.65
10712;BME280;5407;51.234;6.804;2023-03-19T08:50:31;100853.66;;;23.81;39.61
10712;BME280;5407;51.234;6.804;2023-03-19T08:52:59;100850.47;;;23.82;39.56
10712;BME280;5407;51.234;6.804;2023-03-19T08:55:26;100855.13;;;23.85;39.54
10712;BME280;5407;51.234;6.804;2023-03-19T09:00:27;100860.16;;;23.90;39.70
10712;BME280;5407;51.234;6.804;2023-03-19T09:02:54;100851.88;;;23.90;39.40
10712;BME280;5407;51.234;6.804;2023-03-19T09:05:20;100851.03;;;23.93;39.54
10712;BME280;5407;51.234;6.804;2023-03-19T09:07:49;100858.44;;;23.96;39.46
10712;BME280;5407;51.234;6.804;2023-03-19T09:10:17;100856.03;;;23.98;39.55
10712;BME280;5407;51.234;6.804;2023-03-19T09:12:44;100854.03;;;23.99;39.50
10712;BME280;5407;51.234;6.804;2023-03-19T09:15:11;100858.69;;;24.02;39.42
10712;BME280;5407;51.234;6.804;2023-03-19T09:17:38;100857.09;;;24.04;39.46
10712;BME280;5407;51.234;6.804;2023-03-19T09:20:06;100853.13;;;24.05;39.38
10712;BME280;5407;51.234;6.804;2023-03-19T09:22:33;100858.97;;;24.07;39.41
10712;BME280;5407;51.234;6.804;2023-03-19T09:25:00;100864.06;;;24.09;39.29
10712;BME280;5407;51.234;6.804;2023-03-19T09:27:28;100860.88;;;24.10;39.22
10712;BME280;5407;51.234;6.804;2023-03-19T09:29:55;100863.97;;;24.12;39.31
10712;BME280;5407;51.234;6.804;2023-03-19T09:32:21;100871.06;;;24.13;39.23
10712;BME280;5407;51.234;6.804;2023-03-19T09:34:48;100871.41;;;24.15;39.24
10712;BME280;5407;51.234;6.804;2023-03-19T09:37:15;100870.19;;;24.16;39.43
10712;BME280;5407;51.234;6.804;2023-03-19T09:39:42;100873.28;;;24.18;39.28
10712;BME280;5407;51.234;6.804;2023-03-19T09:42:20;100884.66;;;24.20;39.22
10712;BME280;5407;51.234;6.804;2023-03-19T09:44:54;100877.94;;;24.21;39.40
10712;BME280;5407;51.234;6.804;2023-03-19T09:47:26;100891.31;;;24.23;39.29
10712;BME280;5407;51.234;6.804;2023-03-19T09:49:55;100886.56;;;24.23;39.39
10712;BME280;5407;51.234;6.804;2023-03-19T09:52:30;100886.50;;;24.27;39.17
10712;BME280;5407;51.234;6.804;2023-03-19T09:55:03;100882.94;;;24.26;39.12
10712;BME280;5407;51.234;6.804;2023-03-19T09:57:34;100883.75;;;24.27;39.34
10712;BME280;5407;51.234;6.804;2023-03-19T10:00:21;100881.75;;;24.27;39.23
10712;BME280;5407;51.234;6.804;2023-03-19T10:02:53;100881.75;;;24.27;39.42
10712;BME280;5407;51.234;6.804;2023-03-19T10:05:29;100884.84;;;24.29;39.15
10712;BME280;5407;51.234;6.804;2023-03-19T10:08:21;100880.88;;;24.30;39.40
10712;BME280;5407;51.234;6.804;2023-03-19T10:11:03;100886.41;;;24.30;39.39
10712;BME280;5407;51.234;6.804;2023-03-19T10:13:41;100884.84;;;24.29;39.21
10712;BME280;5407;51.234;6.804;2023-03-19T10:16:17;100883.66;;;24.30;39.16
10712;BME280;5407;51.234;6.804;2023-03-19T10:18:47;100887.94;;;24.31;39.41
10712;BME280;5407;51.234;6.804;2023-03-19T10:21:19;100887.19;;;24.31;39.45
10712;BME280;5407;51.234;6.804;2023-03-19T10:23:51;100882.44;;;24.31;39.26
10712;BME280;5407;51.234;6.804;2023-03-19T10:26:21;100891.06;;;24.33;39.52
10712;BME280;5407;51.234;6.804;2023-03-19T10:28:57;100891.06;;;24.33;39.41
10712;BME280;5407;51.234;6.804;2023-03-19T10:31:27;100894.53;;;24.37;39.49
10712;BME280;5407;51.234;6.804;2023-03-19T10:34:00;100890.47;;;24.42;39.43
10712;BME280;5407;51.234;6.804;2023-03-19T10:36:33;100898.69;;;24.45;39.20
10712;BME280;5407;51.234;6.804;2023-03-19T10:39:01;100892.72;;;24.47;39.34
10712;BME280;5407;51.234;6.804;2023-03-19T10:41:39;100893.84;;;24.49;39.58
10712;BME280;5407;51.234;6.804;2023-03-19T10:44:16;100902.50;;;24.51;39.26
10712;BME280;5407;51.234;6.804;2023-03-19T10:46:48;100896.13;;;24.54;39.54
10712;BME280;5407;51.234;6.804;2023-03-19T10:49:15;100900.78;;;24.57;39.56
10712;BME280;5407;51.234;6.804;2023-03-19T10:51:43;100899.91;;;24.60;39.44
10712;BME280;5407;51.234;6.804;2023-03-19T10:54:22;100907.00;;;24.61;39.36
10712;BME280;5407;51.234;6.804;2023-03-19T10:56:50;100908.53;;;24.62;39.63
10712;BME280;5407;51.234;6.804;2023-03-19T10:59:23;100905.38;;;24.64;39.67
10712;BME280;5407;51.234;6.804;2023-03-19T11:01:56;100915.97;;;24.65;39.58
10712;BME280;5407;51.234;6.804;2023-03-19T11:04:25;100914.34;;;24.68;39.77
10712;BME280;5407;51.234;6.804;2023-03-19T11:06:54;100918.19;;;24.70;39.78
10712;BME280;5407;51.234;6.804;2023-03-19T11:09:27;100918.19;;;24.70;39.77
10712;BME280;5407;51.234;6.804;2023-03-19T11:11:59;100916.13;;;24.74;39.59
10712;BME280;5407;51.234;6.804;2023-03-19T11:14:35;100923.19;;;24.75;39.64
10712;BME280;5407;51.234;6.804;2023-03-19T11:17:06;100922.78;;;24.77;39.59
10712;BME280;5407;51.234;6.804;2023-03-19T11:19:48;100922.31;;;24.78;39.44
10712;BME280;5407;51.234;6.804;2023-03-19T11:22:19;100914.41;;;24.80;39.45
10712;BME280;5407;51.234;6.804;2023-03-19T11:24:49;100920.28;;;24.82;39.58
10712;BME280;5407;51.234;6.804;2023-03-19T11:27:17;100922.69;;;24.80;39.04
10712;BME280;5407;51.234;6.804;2023-03-19T11:29:44;100919.91;;;24.80;38.98
10712;BME280;5407;51.234;6.804;2023-03-19T11:32:25;100920.63;;;24.84;39.09
10712;BME280;5407;51.234;6.804;2023-03-19T11:35:00;100919.09;;;24.83;39.04
10712;BME280;5407;51.234;6.804;2023-03-19T11:37:32;100916.66;;;24.85;38.95
10712;BME280;5407;51.234;6.804;2023-03-19T11:40:11;100919.59;;;24.94;39.55
10712;BME280;5407;51.234;6.804;2023-03-19T11:43:22;100930.53;;;24.98;39.33
10712;BME280;5407;51.234;6.804;2023-03-19T11:45:59;100921.38;;;25.01;39.34
10712;BME280;5407;51.234;6.804;2023-03-19T11:48:41;100915.09;;;25.00;39.34
10712;BME280;5407;51.234;6.804;2023-03-19T11:51:18;100919.41;;;25.01;39.31
10712;BME280;5407;51.234;6.804;2023-03-19T11:53:55;100919.41;;;25.01;39.30
10712;BME280;5407;51.234;6.804;2023-03-19T11:56:30;100918.19;;;25.02;39.33
10712;BME280;5407;51.234;6.804;2023-03-19T11:59:20;100921.72;;;25.03;39.62
10712;BME280;5407;51.234;6.804;2023-03-19T12:02:18;100932.34;;;25.04;39.35
10712;BME280;5407;51.234;6.804;2023-03-19T12:05:02;100929.56;;;25.04;39.39
10712;BME280;5407;51.234;6.804;2023-03-19T12:07:43;100936.66;;;25.05;39.51
10712;BME280;5407;51.234;6.804;2023-03-19T12:10:41;100938.22;;;25.06;39.62
10712;BME280;5407;51.234;6.804;2023-03-19T12:16:07;100939.00;;;25.07;39.32
10712;BME280;5407;51.234;6.804;2023-03-19T12:18:53;100934.22;;;25.07;39.63
10712;BME280;5407;51.234;6.804;2023-03-19T12:21:35;100930.25;;;25.08;39.60
10712;BME280;5407;51.234;6.804;2023-03-19T12:24:13;100927.50;;;25.08;39.40
10712;BME280;5407;51.234;6.804;2023-03-19T12:26:53;100926.28;;;25.09;39.22
10712;BME280;5407;51.234;6.804;2023-03-19T12:29:33;100920.78;;;25.09;39.34
10712;BME280;5407;51.234;6.804;2023-03-19T12:32:12;100927.84;;;25.10;39.28
10712;BME280;5407;51.234;6.804;2023-03-19T12:34:45;100927.94;;;25.07;39.16
10712;BME280;5407;51.234;6.804;2023-03-19T12:37:20;100926.41;;;25.06;39.33
10712;BME280;5407;51.234;6.804;2023-03-19T12:40:02;100927.16;;;25.06;39.16
10712;BME280;5407;51.234;6.804;2023-03-19T12:42:35;100928.63;;;25.11;39.23
10712;BME280;5407;51.234;6.804;2023-03-19T12:45:10;100925.53;;;25.09;39.29
10712;BME280;5407;51.234;6.804;2023-03-19T12:47:41;100925.94;;;25.07;39.05
10712;BME280;5407;51.234;6.804;2023-03-19T12:50:12;100926.41;;;25.06;39.17
10712;BME280;5407;51.234;6.804;2023-03-19T12:52:44;100924.75;;;25.08;39.16
10712;BME280;5407;51.234;6.804;2023-03-19T12:55:15;100927.16;;;25.06;39.28
10712;BME280;5407;51.234;6.804;2023-03-19T12:57:46;100936.66;;;25.05;39.36
10712;BME280;5407;51.234;6.804;2023-03-19T13:00:19;100929.56;;;25.04;39.01
10712;BME280;5407;51.234;6.804;2023-03-19T13:02:52;100929.25;;;25.02;39.30
10712;BME280;5407;51.234;6.804;2023-03-19T13:05:28;100922.16;;;25.01;39.13
10712;BME280;5407;51.234;6.804;2023-03-19T13:08:02;100920.94;;;25.02;39.10
10712;BME280;5407;51.234;6.804;2023-03-19T13:10:30;100920.94;;;25.02;39.19
10712;BME280;5407;51.234;6.804;2023-03-19T13:12:59;100924.94;;;25.01;39.31
10712;BME280;5407;51.234;6.804;2023-03-19T13:15:30;100919.41;;;25.01;39.53
10712;BME280;5407;51.234;6.804;2023-03-19T13:18:13;100923.38;;;25.00;39.20
10712;BME280;5407;51.234;6.804;2023-03-19T13:20:53;100918.63;;;25.01;39.20
10712;BME280;5407;51.234;6.804;2023-03-19T13:23:27;100923.38;;;25.00;39.25
10712;BME280;5407;51.234;6.804;2023-03-19T13:25:57;100916.31;;;24.99;39.60